createdAt,value
2018-09-25T00:01:40.045Z,2.60
2018-09-25T00:04:15.559Z,3.00
2018-09-25T00:06:50.400Z,2.60
2018-09-25T00:09:26.603Z,2.80
2018-09-25T00:12:01.622Z,2.53
2018-09-25T00:14:36.992Z,2.93
2018-09-25T00:17:12.035Z,2.53
2018-09-25T00:19:47.407Z,3.00
2018-09-25T00:22:22.746Z,2.67
2018-09-25T00:24:58.081Z,2.80
2018-09-25T00:27:34.700Z,2.97
2018-09-25T00:30:09.814Z,2.93
2018-09-25T00:32:45.136Z,2.60
2018-09-25T00:35:20.748Z,2.50
2018-09-25T00:37:55.846Z,3.00
2018-09-25T00:40:31.664Z,2.90
2018-09-25T00:43:06.836Z,2.70
2018-09-25T00:45:44.689Z,2.80
2018-09-25T00:48:20.325Z,2.70
2018-09-25T00:50:55.798Z,2.70
2018-09-25T00:53:30.960Z,2.90
2018-09-25T00:56:06.269Z,2.93
2018-09-25T00:58:41.525Z,3.17
2018-09-25T01:01:16.513Z,3.30
2018-09-25T01:03:51.626Z,2.73
2018-09-25T01:06:28.268Z,2.83
2018-09-25T01:09:03.831Z,2.40
2018-09-25T01:11:38.780Z,2.60
2018-09-25T01:14:14.168Z,2.60
2018-09-25T01:16:49.175Z,3.00
2018-09-25T01:19:24.069Z,2.93
2018-09-25T01:22:00.364Z,2.57
2018-09-25T01:24:36.025Z,3.23
2018-09-25T01:27:11.268Z,2.73
2018-09-25T01:29:46.527Z,2.87
2018-09-25T01:32:21.644Z,2.67
2018-09-25T01:34:56.806Z,3.23
2018-09-25T01:37:31.644Z,2.87
2018-09-25T01:40:07.036Z,3.00
2018-09-25T01:42:41.848Z,3.00
2018-09-25T01:45:17.416Z,3.67
2018-09-25T01:47:52.793Z,3.37
2018-09-25T01:50:28.213Z,3.10
2018-09-25T01:53:03.505Z,3.10
2018-09-25T01:55:38.717Z,3.07
2018-09-25T01:58:15.066Z,3.40
2018-09-25T02:00:50.120Z,2.80
2018-09-25T02:03:25.293Z,2.93
2018-09-25T02:06:00.205Z,3.03
2018-09-25T02:08:36.429Z,3.00
2018-09-25T02:11:11.488Z,2.60
2018-09-25T02:13:46.924Z,3.00
2018-09-25T02:16:21.992Z,2.87
2018-09-25T02:18:58.144Z,3.20
2018-09-25T02:21:33.233Z,2.80
2018-09-25T02:24:08.843Z,2.80
2018-09-25T02:26:43.890Z,3.53
2018-09-25T02:29:18.920Z,3.50
2018-09-25T02:31:54.007Z,3.20
2018-09-25T02:34:28.953Z,3.00
2018-09-25T02:37:04.564Z,3.37
2018-09-25T02:39:39.471Z,3.80
2018-09-25T02:42:14.726Z,3.40
2018-09-25T02:44:49.648Z,3.27
2018-09-25T02:47:25.041Z,3.03
2018-09-25T02:50:01.189Z,3.50
2018-09-25T02:52:35.936Z,3.30
2018-09-25T02:55:12.638Z,3.40
2018-09-25T02:57:47.785Z,3.73
2018-09-25T03:00:23.542Z,3.37
2018-09-25T03:02:58.295Z,3.70
2018-09-25T03:05:34.543Z,2.93
2018-09-25T03:08:09.716Z,3.20
2018-09-25T03:10:44.948Z,3.20
2018-09-25T03:13:20.524Z,3.17
2018-09-25T03:15:55.902Z,3.50
2018-09-25T03:18:31.359Z,3.50
2018-09-25T03:21:06.637Z,3.37
2018-09-25T03:23:41.889Z,3.37
2018-09-25T03:26:17.811Z,4.07
2018-09-25T03:28:52.921Z,3.60
2018-09-25T03:31:27.995Z,3.60
2018-09-25T03:34:03.391Z,3.67
2018-09-25T03:36:38.839Z,3.30
2018-09-25T03:39:14.492Z,3.63
2018-09-25T03:41:49.321Z,4.30
2018-09-25T03:44:24.628Z,4.50
2018-09-25T03:46:59.599Z,3.60
2018-09-25T03:49:34.520Z,3.73
2018-09-25T03:52:10.568Z,3.87
2018-09-25T03:54:45.376Z,4.50
2018-09-25T03:57:20.617Z,3.73
2018-09-25T03:59:55.352Z,3.87
2018-09-25T04:02:31.030Z,5.00
2018-09-25T04:05:05.903Z,4.47
2018-09-25T04:07:40.877Z,4.63
2018-09-25T04:10:16.498Z,4.10
2018-09-25T04:12:51.724Z,4.40
2018-09-25T04:15:26.577Z,4.87
2018-09-25T04:18:01.305Z,4.40
2018-09-25T04:20:36.281Z,4.57
2018-09-25T04:23:12.625Z,5.03
2018-09-25T04:25:47.476Z,4.40
2018-09-25T04:28:22.663Z,4.97
2018-09-25T04:30:57.760Z,4.67
2018-09-25T04:33:32.796Z,5.50
2018-09-25T04:36:07.728Z,5.00
2018-09-25T04:38:42.592Z,5.00
2018-09-25T04:41:17.857Z,4.70
2018-09-25T04:43:52.960Z,5.10
2018-09-25T04:46:27.781Z,5.53
2018-09-25T04:49:03.540Z,5.17
2018-09-25T04:51:38.733Z,6.17
2018-09-25T04:54:14.393Z,6.20
2018-09-25T04:56:49.309Z,5.03
2018-09-25T04:59:24.654Z,5.20
2018-09-25T05:01:59.557Z,5.50
2018-09-25T05:04:34.850Z,5.63
2018-09-25T05:07:09.751Z,5.40
2018-09-25T05:09:44.632Z,5.33
2018-09-25T05:12:19.522Z,5.57
2018-09-25T05:14:55.646Z,5.20
2018-09-25T05:17:32.019Z,5.27
2018-09-25T05:20:07.101Z,5.40
2018-09-25T05:22:42.283Z,5.43
2018-09-25T05:25:17.140Z,5.30
2018-09-25T05:27:52.160Z,5.73
2018-09-25T05:30:27.205Z,7.13
2018-09-25T05:33:02.338Z,5.70
2018-09-25T05:35:37.555Z,6.20
2018-09-25T05:38:12.576Z,6.03
2018-09-25T05:40:47.579Z,6.63
2018-09-25T05:43:22.922Z,6.20
2018-09-25T05:45:58.036Z,5.90
2018-09-25T05:48:33.036Z,6.27
2018-09-25T05:51:08.235Z,6.33
2018-09-25T05:53:42.871Z,7.03
2018-09-25T05:56:21.739Z,6.83
2018-09-25T05:58:56.706Z,6.67
2018-09-25T06:01:31.514Z,10.47
2018-09-25T06:04:06.200Z,11.43
2018-09-25T06:06:42.529Z,13.10
2018-09-25T06:09:17.722Z,13.30
2018-09-25T06:11:52.505Z,12.57
2018-09-25T06:14:27.554Z,12.77
2018-09-25T06:17:02.278Z,14.70
2018-09-25T06:19:37.390Z,17.60
2018-09-25T06:22:12.569Z,18.13
2018-09-25T06:24:47.734Z,18.33
2018-09-25T06:27:23.171Z,19.03
2018-09-25T06:29:58.260Z,18.30
2018-09-25T06:32:33.413Z,16.47
2018-09-25T06:35:08.194Z,15.33
2018-09-25T06:37:42.891Z,12.90
2018-09-25T06:40:17.667Z,12.03
2018-09-25T06:42:52.374Z,10.50
2018-09-25T06:45:28.110Z,10.23
2018-09-25T06:48:02.815Z,9.87
2018-09-25T06:50:38.046Z,8.90
2018-09-25T06:53:14.613Z,7.90
2018-09-25T06:55:53.991Z,7.53
2018-09-25T06:58:28.889Z,7.43
2018-09-25T07:01:03.896Z,7.50
2018-09-25T07:03:38.794Z,6.50
2018-09-25T07:06:16.802Z,7.37
2018-09-25T07:08:52.578Z,6.33
2018-09-25T07:11:27.361Z,7.10
2018-09-25T07:14:14.976Z,6.50
2018-09-25T07:16:50.298Z,6.17
2018-09-25T07:19:27.461Z,5.47
2018-09-25T07:22:02.715Z,5.40
2018-09-25T07:24:37.543Z,4.97
2018-09-25T07:27:13.016Z,4.77
2018-09-25T07:29:47.806Z,4.60
2018-09-25T07:32:23.211Z,3.50
2018-09-25T07:34:58.337Z,3.00
2018-09-25T07:37:33.125Z,3.30
2018-09-25T07:40:07.809Z,3.33
2018-09-25T07:42:42.930Z,3.20
2018-09-25T07:45:17.874Z,2.90
2018-09-25T07:47:52.519Z,2.77
2018-09-25T07:50:28.125Z,3.37
2018-09-25T07:53:03.067Z,2.73
2018-09-25T07:55:38.035Z,2.60
2018-09-25T07:58:12.720Z,2.80
2018-09-25T08:00:47.551Z,2.50
2018-09-25T08:03:22.892Z,2.80
2018-09-25T08:05:57.688Z,2.70
2018-09-25T08:08:32.926Z,2.07
2018-09-25T08:11:07.823Z,2.30
2018-09-25T08:13:42.663Z,1.93
2018-09-25T08:16:17.619Z,2.07
2018-09-25T08:18:52.779Z,2.30
2018-09-25T08:21:28.270Z,2.67
2018-09-25T08:24:03.114Z,2.50
2018-09-25T08:26:38.654Z,1.77
2018-09-25T08:29:13.505Z,2.53
2018-09-25T08:31:48.425Z,2.33
2018-09-25T08:34:23.301Z,2.30
2018-09-25T08:36:58.140Z,2.10
2018-09-25T08:39:33.432Z,2.13
2018-09-25T08:42:08.190Z,2.00
2018-09-25T08:44:43.150Z,2.30
2018-09-25T08:47:19.959Z,1.90
2018-09-25T08:49:55.374Z,1.80
2018-09-25T08:52:30.274Z,2.47
2018-09-25T08:55:05.003Z,2.20
2018-09-25T08:57:40.200Z,1.93
2018-09-25T09:00:15.038Z,2.20
2018-09-25T09:02:50.337Z,1.97
2018-09-25T09:05:25.051Z,2.20
2018-09-25T09:08:00.080Z,2.37
2018-09-25T09:10:34.862Z,1.80
2018-09-25T09:13:10.634Z,2.20
2018-09-25T09:15:45.543Z,2.57
2018-09-25T09:18:20.687Z,2.53
2018-09-25T09:20:55.719Z,2.00
2018-09-25T09:23:30.629Z,2.27
2018-09-25T09:26:05.426Z,2.00
2018-09-25T09:28:40.213Z,2.00
2018-09-25T09:31:15.389Z,1.90
2018-09-25T09:33:50.865Z,1.97
2018-09-25T09:36:25.613Z,2.10
2018-09-25T09:39:00.740Z,2.27
2018-09-25T09:41:46.718Z,2.10
2018-09-25T09:44:21.645Z,1.80
2018-09-25T09:46:56.904Z,2.20
2018-09-25T09:49:31.765Z,2.10
2018-09-25T09:52:07.339Z,1.63
2018-09-25T09:54:42.321Z,2.10
2018-09-25T09:57:17.663Z,1.93
2018-09-25T09:59:53.836Z,1.70
2018-09-25T10:02:29.014Z,2.07
2018-09-25T10:05:03.821Z,1.87
2018-09-25T10:07:38.634Z,1.70
2018-09-25T10:10:14.021Z,2.13
2018-09-25T10:12:48.887Z,1.70
2018-09-25T10:15:23.690Z,2.10
2018-09-25T10:17:58.350Z,1.90
2018-09-25T10:20:33.833Z,1.80
2018-09-25T10:23:08.599Z,2.07
2018-09-25T10:25:43.335Z,1.83
2018-09-25T10:28:18.462Z,2.27
2018-09-25T10:30:53.357Z,1.77
2018-09-25T10:33:28.494Z,1.90
2018-09-25T10:36:03.169Z,1.73
2018-09-25T10:38:38.225Z,1.80
2018-09-25T10:41:13.093Z,1.73
2018-09-25T10:43:47.853Z,1.90
2018-09-25T10:46:23.372Z,2.07
2018-09-25T10:48:58.115Z,1.73
2018-09-25T10:51:33.246Z,1.60
2018-09-25T10:54:08.535Z,1.80
2018-09-25T10:56:43.662Z,1.70
2018-09-25T10:59:18.447Z,1.90
2018-09-25T11:01:53.098Z,1.90
2018-09-25T11:04:27.750Z,1.90
2018-09-25T11:07:02.457Z,1.60
2018-09-25T11:09:37.541Z,2.23
2018-09-25T11:12:12.620Z,1.60
2018-09-25T11:14:47.418Z,1.90
2018-09-25T11:17:22.194Z,1.90
2018-09-25T11:19:56.877Z,1.63
2018-09-25T11:22:31.762Z,1.77
2018-09-25T11:25:06.406Z,1.90
2018-09-25T11:27:41.595Z,1.80
2018-09-25T11:30:16.243Z,2.07
2018-09-25T11:32:51.289Z,1.70
2018-09-25T11:35:26.226Z,2.23
2018-09-25T11:38:01.750Z,1.83
2018-09-25T11:40:36.556Z,1.83
2018-09-25T11:43:11.426Z,1.80
2018-09-25T11:45:46.520Z,1.67
2018-09-25T11:48:21.767Z,1.67
2018-09-25T11:50:58.207Z,1.70
2018-09-25T11:53:33.110Z,1.50
2018-09-25T11:56:08.728Z,1.80
2018-09-25T11:58:43.639Z,1.60
2018-09-25T12:01:18.309Z,1.67
2018-09-25T12:03:53.404Z,1.90
2018-09-25T12:06:28.121Z,1.70
2018-09-25T12:09:03.130Z,1.90
2018-09-25T12:11:38.034Z,1.60
2018-09-25T12:14:12.994Z,1.50
2018-09-25T12:16:47.818Z,1.53
2018-09-25T12:19:22.970Z,1.30
2018-09-25T12:21:58.267Z,1.60
2018-09-25T12:24:33.068Z,1.30
2018-09-25T12:27:08.201Z,1.50
2018-09-25T12:29:43.170Z,1.60
2018-09-25T12:32:19.517Z,1.20
2018-09-25T12:34:54.710Z,1.57
2018-09-25T12:37:30.258Z,1.20
2018-09-25T12:40:05.417Z,1.50
2018-09-25T12:42:40.094Z,1.80
2018-09-25T12:45:15.402Z,1.40
2018-09-25T12:47:50.070Z,1.50
2018-09-25T12:50:24.918Z,1.33
2018-09-25T12:52:59.714Z,1.57
2018-09-25T12:55:34.534Z,1.43
2018-09-25T12:58:12.101Z,1.13
2018-09-25T13:00:48.576Z,1.27
2018-09-25T13:03:23.989Z,1.43
2018-09-25T13:05:59.326Z,1.67
2018-09-25T13:08:34.642Z,1.30
2018-09-25T13:11:09.381Z,1.40
2018-09-25T13:13:44.007Z,1.33
2018-09-25T13:16:19.138Z,1.40
2018-09-25T13:18:53.799Z,1.40
2018-09-25T13:21:28.835Z,1.63
2018-09-25T13:24:03.698Z,1.30
2018-09-25T13:26:42.237Z,1.37
2018-09-25T13:29:17.304Z,1.27
2018-09-25T13:31:52.158Z,1.47
2018-09-25T13:34:28.078Z,1.60
2018-09-25T13:37:03.021Z,1.47
2018-09-25T13:39:38.291Z,1.23
2018-09-25T13:42:13.149Z,1.30
2018-09-25T13:44:48.366Z,1.00
2018-09-25T13:47:23.190Z,1.27
2018-09-25T13:49:57.915Z,1.23
2018-09-25T13:52:33.579Z,0.97
2018-09-25T13:55:08.466Z,1.47
2018-09-25T13:57:43.820Z,1.20
2018-09-25T14:00:18.534Z,1.40
2018-09-25T14:02:53.466Z,1.40
2018-09-25T14:05:28.278Z,1.30
2018-09-25T14:08:03.236Z,1.13
2018-09-25T14:10:45.237Z,1.30
2018-09-25T14:13:20.401Z,1.53
2018-09-25T14:15:55.704Z,1.20
2018-09-25T14:18:30.599Z,1.20
2018-09-25T14:21:06.780Z,1.30
2018-09-25T14:23:41.685Z,1.33
2018-09-25T14:26:16.494Z,1.20
2018-09-25T14:28:51.474Z,1.10
2018-09-25T14:31:26.279Z,1.07
2018-09-25T14:34:01.381Z,1.00
2018-09-25T14:36:36.099Z,1.20
2018-09-25T14:39:12.759Z,1.17
2018-09-25T14:41:47.595Z,1.10
2018-09-25T14:44:22.290Z,1.50
2018-09-25T14:46:57.425Z,1.10
2018-09-25T14:49:32.289Z,1.20
2018-09-25T14:52:07.384Z,1.20
2018-09-25T14:54:42.071Z,1.10
2018-09-25T14:57:17.830Z,1.30
2018-09-25T14:59:52.941Z,1.23
2018-09-25T15:02:27.922Z,1.20
2018-09-25T15:05:03.502Z,1.30
2018-09-25T15:07:38.277Z,1.30
2018-09-25T15:10:13.718Z,1.10
2018-09-25T15:12:48.706Z,1.50
2018-09-25T15:15:23.927Z,1.30
2018-09-25T15:17:58.738Z,1.27
2018-09-25T15:20:33.539Z,1.30
2018-09-25T15:23:08.754Z,1.20
2018-09-25T15:25:43.421Z,1.30
2018-09-25T15:28:18.394Z,1.40
2018-09-25T15:30:53.068Z,1.30
2018-09-25T15:33:27.765Z,1.30
2018-09-25T15:36:02.657Z,1.30
2018-09-25T15:38:37.389Z,1.10
2018-09-25T15:41:13.172Z,1.20
2018-09-25T15:43:47.966Z,1.40
2018-09-25T15:46:23.652Z,1.20
2018-09-25T15:48:58.400Z,1.30
2018-09-25T15:51:33.362Z,1.30
2018-09-25T15:54:08.116Z,1.30
2018-09-25T15:56:42.837Z,1.47
2018-09-25T15:59:17.790Z,1.37
2018-09-25T16:02:16.316Z,1.40
2018-09-25T16:04:51.401Z,1.40
2018-09-25T16:07:26.098Z,1.33
2018-09-25T16:10:02.095Z,1.40
2018-09-25T16:12:37.188Z,1.53
2018-09-25T16:15:12.014Z,1.40
2018-09-25T16:17:46.802Z,1.50
2018-09-25T16:20:21.555Z,1.67
2018-09-25T16:22:56.629Z,1.40
2018-09-25T16:25:31.296Z,1.33
2018-09-25T16:28:13.383Z,1.60
2018-09-25T16:30:48.498Z,1.40
2018-09-25T16:33:23.785Z,1.73
2018-09-25T16:35:58.410Z,1.90
2018-09-25T16:38:33.416Z,1.50
2018-09-25T16:41:08.206Z,1.60
2018-09-25T16:43:43.635Z,1.80
2018-09-25T16:46:18.582Z,1.80
2018-09-25T16:48:54.644Z,2.03
2018-09-25T16:51:29.438Z,2.20
2018-09-25T16:54:04.098Z,2.13
2018-09-25T16:56:39.505Z,2.00
2018-09-25T16:59:15.002Z,2.30
2018-09-25T17:01:50.398Z,1.80
2018-09-25T17:04:26.270Z,1.70
2018-09-25T17:07:01.707Z,2.00
2018-09-25T17:09:36.515Z,1.80
2018-09-25T17:12:11.318Z,1.80
2018-09-25T17:14:46.504Z,2.03
2018-09-25T17:17:21.328Z,1.80
2018-09-25T17:19:56.335Z,1.90
2018-09-25T17:22:31.123Z,1.90
2018-09-25T17:25:06.749Z,1.80
2018-09-25T17:27:41.605Z,1.90
2018-09-25T17:30:16.418Z,1.80
2018-09-25T17:32:51.607Z,1.47
2018-09-25T17:35:26.274Z,1.80
2018-09-25T17:38:00.970Z,1.87
2018-09-25T17:40:35.882Z,2.03
2018-09-25T17:43:10.949Z,1.90
2018-09-25T17:45:47.317Z,1.90
2018-09-25T17:48:22.029Z,2.07
2018-09-25T17:50:57.162Z,2.30
2018-09-25T17:53:32.081Z,2.07
2018-09-25T17:56:07.253Z,1.93
2018-09-25T17:58:42.062Z,2.53
2018-09-25T18:01:17.398Z,3.00
2018-09-25T18:03:52.331Z,3.03
2018-09-25T18:06:27.562Z,2.37
2018-09-25T18:09:02.366Z,2.37
2018-09-25T18:11:37.204Z,2.30
2018-09-25T18:14:12.921Z,2.27
2018-09-25T18:16:47.970Z,2.50
2018-09-25T18:19:23.271Z,2.37
2018-09-25T18:21:58.018Z,2.23
2018-09-25T18:24:32.914Z,2.13
2018-09-25T18:27:08.050Z,2.40
2018-09-25T18:29:42.843Z,2.00
2018-09-25T18:32:17.791Z,2.30
2018-09-25T18:34:52.646Z,2.13
2018-09-25T18:37:28.601Z,2.40
2018-09-25T18:40:03.374Z,2.60
2018-09-25T18:42:38.127Z,2.50
2018-09-25T18:45:14.462Z,2.10
2018-09-25T18:47:49.646Z,2.20
2018-09-25T18:50:25.341Z,2.50
2018-09-25T18:53:00.162Z,2.60
2018-09-25T18:55:35.323Z,2.40
2018-09-25T18:58:10.147Z,2.90
2018-09-25T19:00:45.080Z,3.07
2018-09-25T19:03:19.834Z,2.80
2018-09-25T19:05:54.743Z,3.30
2018-09-25T19:08:29.868Z,3.30
2018-09-25T19:11:04.527Z,3.00
2018-09-25T19:13:39.500Z,3.17
2018-09-25T19:16:14.703Z,3.07
2018-09-25T19:18:49.642Z,2.93
2018-09-25T19:21:24.541Z,2.97
2018-09-25T19:23:59.358Z,3.80
2018-09-25T19:26:34.664Z,3.70
2018-09-25T19:29:09.652Z,3.80
2018-09-25T19:31:45.412Z,4.07
2018-09-25T19:34:20.344Z,4.13
2018-09-25T19:36:55.027Z,4.10
2018-09-25T19:39:29.974Z,4.00
2018-09-25T19:42:05.114Z,4.17
2018-09-25T19:44:40.326Z,4.20
2018-09-25T19:47:15.390Z,3.53
2018-09-25T19:49:51.671Z,4.10
2018-09-25T19:52:26.725Z,4.00
2018-09-25T19:55:02.108Z,3.57
2018-09-25T19:57:36.889Z,4.27
2018-09-25T20:00:12.175Z,4.60
2018-09-25T20:02:47.692Z,4.83
2018-09-25T20:05:22.516Z,4.00
2018-09-25T20:07:57.590Z,4.07
2018-09-25T20:10:32.820Z,5.37
2018-09-25T20:13:07.626Z,6.10
2018-09-25T20:15:42.470Z,5.30
2018-09-25T20:18:17.690Z,5.00
2018-09-25T20:20:53.523Z,5.63
2018-09-25T20:23:28.313Z,5.30
2018-09-25T20:26:03.393Z,5.67
2018-09-25T20:28:38.042Z,5.33
2018-09-25T20:31:13.282Z,5.63
2018-09-25T20:33:48.225Z,5.10
2018-09-25T20:36:23.512Z,5.70
2018-09-25T20:38:58.411Z,5.70
2018-09-25T20:41:33.767Z,5.67
2018-09-25T20:44:08.961Z,5.13
2018-09-25T20:46:43.981Z,6.00
2018-09-25T20:49:18.881Z,5.50
2018-09-25T20:51:53.963Z,5.90
2018-09-25T20:54:28.797Z,6.07
2018-09-25T20:57:03.879Z,6.30
2018-09-25T20:59:38.842Z,5.60
2018-09-25T21:02:14.385Z,5.60
2018-09-25T21:04:49.079Z,5.77
2018-09-25T21:07:23.959Z,5.73
2018-09-25T21:09:59.798Z,5.33
2018-09-25T21:12:34.942Z,5.27
2018-09-25T21:15:10.568Z,5.63
2018-09-25T21:17:45.379Z,5.80
2018-09-25T21:20:20.914Z,5.20
2018-09-25T21:22:56.034Z,5.13
2018-09-25T21:25:30.998Z,5.33
2018-09-25T21:28:06.238Z,4.93
2018-09-25T21:30:41.025Z,5.03
2018-09-25T21:33:16.155Z,5.47
2018-09-25T21:35:50.858Z,5.40
2018-09-25T21:38:26.278Z,5.00
2018-09-25T21:41:01.367Z,4.43
2018-09-25T21:43:36.668Z,5.27
2018-09-25T21:46:11.641Z,5.53
2018-09-25T21:48:46.648Z,5.00
2018-09-25T21:51:22.182Z,5.30
2018-09-25T21:53:57.701Z,5.20
2018-09-25T21:56:33.166Z,5.20
2018-09-25T21:59:08.308Z,5.00
2018-09-25T22:04:23.864Z,4.90
2018-09-25T22:06:58.744Z,6.63
2018-09-25T22:09:34.648Z,5.40
2018-09-25T22:12:10.023Z,4.50
2018-09-25T22:14:45.291Z,4.47
2018-09-25T22:17:20.262Z,4.50
2018-09-25T22:19:55.845Z,4.67
2018-09-25T22:22:31.524Z,4.67
2018-09-25T22:25:06.433Z,4.63
2018-09-25T22:27:41.728Z,4.77
2018-09-25T22:30:17.299Z,4.70
2018-09-25T22:32:53.275Z,4.53
2018-09-25T22:35:29.387Z,4.50
2018-09-25T22:38:05.558Z,4.30
2018-09-25T22:40:41.252Z,4.40
2018-09-25T22:43:16.352Z,4.13
2018-09-25T22:45:51.803Z,4.13
2018-09-25T22:48:27.596Z,4.23
2018-09-25T22:51:03.281Z,4.13
2018-09-25T22:53:38.164Z,3.87
2018-09-25T22:56:14.381Z,4.13
2018-09-25T22:58:49.314Z,4.13
2018-09-25T23:01:24.365Z,4.00
2018-09-25T23:03:59.916Z,3.80
2018-09-25T23:06:34.796Z,3.57
2018-09-25T23:09:13.370Z,3.53
2018-09-25T23:11:49.016Z,3.87
2018-09-25T23:14:24.948Z,3.87
2018-09-25T23:16:59.832Z,4.10
2018-09-25T23:19:35.634Z,3.40
2018-09-25T23:22:10.791Z,4.27
2018-09-25T23:24:46.333Z,3.90
2018-09-25T23:27:21.765Z,3.30
2018-09-25T23:29:57.624Z,3.30
2018-09-25T23:32:33.052Z,3.60
2018-09-25T23:35:08.480Z,3.70
2018-09-25T23:37:44.127Z,3.43
2018-09-25T23:40:19.700Z,3.67
2018-09-25T23:42:54.500Z,3.90
2018-09-25T23:46:01.488Z,3.83
2018-09-25T23:48:53.308Z,3.23
2018-09-25T23:51:30.085Z,3.63
2018-09-25T23:54:09.366Z,4.07
2018-09-25T23:56:48.986Z,3.83
2018-09-25T23:59:25.081Z,3.87
